sensor_id;sensor_type;location;lat;lon;timestamp;temperature;humidity
25058;DHT22;13057;50.978;11.034;2022-09-09T00:00:46;17.30;99.90
25058;DHT22;13057;50.978;11.034;2022-09-09T00:03:19;17.30;99.90
25058;DHT22;13057;50.978;11.034;2022-09-09T00:06:04;17.30;99.90
25058;DHT22;13057;50.978;11.034;2022-09-09T00:08:47;17.20;99.90
25058;DHT22;13057;50.978;11.034;2022-09-09T00:11:21;17.20;99.90
25058;DHT22;13057;50.978;11.034;2022-09-09T00:13:52;17.20;99.90
25058;DHT22;13057;50.978;11.034;2022-09-09T00:16:23;17.20;99.90
25058;DHT22;13057;50.978;11.034;2022-09-09T00:19:06;17.20;99.90
25058;DHT22;13057;50.978;11.034;2022-09-09T00:21:36;17.20;99.90
25058;DHT22;13057;50.978;11.034;2022-09-09T00:24:11;17.20;99.90
25058;DHT22;13057;50.978;11.034;2022-09-09T00:26:47;17.10;99.90
25058;DHT22;13057;50.978;11.034;2022-09-09T00:29:27;17.10;99.90
25058;DHT22;13057;50.978;11.034;2022-09-09T00:32:00;17.10;99.90
25058;DHT22;13057;50.978;11.034;2022-09-09T00:34:31;17.20;99.90
25058;DHT22;13057;50.978;11.034;2022-09-09T00:36:58;17.20;99.90
25058;DHT22;13057;50.978;11.034;2022-09-09T00:39:37;17.10;99.90
25058;DHT22;13057;50.978;11.034;2022-09-09T00:42:14;17.10;99.90
25058;DHT22;13057;50.978;11.034;2022-09-09T00:44:53;17.20;99.90
25058;DHT22;13057;50.978;11.034;2022-09-09T00:47:35;17.10;99.90
25058;DHT22;13057;50.978;11.034;2022-09-09T00:50:35;17.20;99.90
25058;DHT22;13057;50.978;11.034;2022-09-09T00:53:30;17.20;99.90
25058;DHT22;13057;50.978;11.034;2022-09-09T00:56:12;17.20;99.90
25058;DHT22;13057;50.978;11.034;2022-09-09T00:58:42;17.20;99.90
25058;DHT22;13057;50.978;11.034;2022-09-09T01:01:10;17.20;99.90
25058;DHT22;13057;50.978;11.034;2022-09-09T01:03:46;17.20;99.90
25058;DHT22;13057;50.978;11.034;2022-09-09T01:06:15;17.10;99.90
25058;DHT22;13057;50.978;11.034;2022-09-09T01:08:55;17.20;99.90
25058;DHT22;13057;50.978;11.034;2022-09-09T01:11:25;17.10;99.90
25058;DHT22;13057;50.978;11.034;2022-09-09T01:14:01;17.10;99.90
25058;DHT22;13057;50.978;11.034;2022-09-09T01:16:35;17.10;99.90
25058;DHT22;13057;50.978;11.034;2022-09-09T01:19:03;17.10;99.90
25058;DHT22;13057;50.978;11.034;2022-09-09T01:21:41;17.00;99.90
25058;DHT22;13057;50.978;11.034;2022-09-09T01:24:25;17.00;99.90
25058;DHT22;13057;50.978;11.034;2022-09-09T01:26:56;17.00;99.90
25058;DHT22;13057;50.978;11.034;2022-09-09T01:29:22;17.00;99.90
25058;DHT22;13057;50.978;11.034;2022-09-09T01:31:54;17.00;99.90
25058;DHT22;13057;50.978;11.034;2022-09-09T01:34:23;17.00;99.90
25058;DHT22;13057;50.978;11.034;2022-09-09T01:37:02;17.00;99.90
25058;DHT22;13057;50.978;11.034;2022-09-09T01:39:28;17.00;99.90
25058;DHT22;13057;50.978;11.034;2022-09-09T01:41:55;17.00;99.90
25058;DHT22;13057;50.978;11.034;2022-09-09T01:44:21;16.90;99.90
25058;DHT22;13057;50.978;11.034;2022-09-09T01:46:48;16.90;99.90
25058;DHT22;13057;50.978;11.034;2022-09-09T01:49:14;16.90;99.90
25058;DHT22;13057;50.978;11.034;2022-09-09T01:51:41;16.90;99.90
25058;DHT22;13057;50.978;11.034;2022-09-09T01:54:08;16.90;99.90
25058;DHT22;13057;50.978;11.034;2022-09-09T01:56:43;16.90;99.90
25058;DHT22;13057;50.978;11.034;2022-09-09T01:59:28;16.90;99.90
25058;DHT22;13057;50.978;11.034;2022-09-09T02:02:11;16.90;99.90
25058;DHT22;13057;50.978;11.034;2022-09-09T02:04:43;16.90;99.90
25058;DHT22;13057;50.978;11.034;2022-09-09T02:07:28;17.00;99.90
25058;DHT22;13057;50.978;11.034;2022-09-09T02:10:02;17.00;99.90
25058;DHT22;13057;50.978;11.034;2022-09-09T02:12:31;17.00;99.90
25058;DHT22;13057;50.978;11.034;2022-09-09T02:15:03;17.00;99.90
25058;DHT22;13057;50.978;11.034;2022-09-09T02:17:35;17.10;99.90
25058;DHT22;13057;50.978;11.034;2022-09-09T02:20:08;17.10;99.90
25058;DHT22;13057;50.978;11.034;2022-09-09T02:22:35;17.10;99.90
25058;DHT22;13057;50.978;11.034;2022-09-09T02:25:06;17.10;99.90
25058;DHT22;13057;50.978;11.034;2022-09-09T02:27:34;17.10;99.90
25058;DHT22;13057;50.978;11.034;2022-09-09T02:30:03;17.10;99.90
25058;DHT22;13057;50.978;11.034;2022-09-09T02:32:31;17.20;99.90
25058;DHT22;13057;50.978;11.034;2022-09-09T02:35:03;17.20;99.90
25058;DHT22;13057;50.978;11.034;2022-09-09T02:37:38;17.10;99.90
25058;DHT22;13057;50.978;11.034;2022-09-09T02:40:06;17.10;99.90
25058;DHT22;13057;50.978;11.034;2022-09-09T02:42:42;17.10;99.90
25058;DHT22;13057;50.978;11.034;2022-09-09T02:45:11;17.10;99.90
25058;DHT22;13057;50.978;11.034;2022-09-09T02:47:44;17.10;99.90
25058;DHT22;13057;50.978;11.034;2022-09-09T02:50:19;17.20;99.90
25058;DHT22;13057;50.978;11.034;2022-09-09T02:53:07;17.20;99.90
25058;DHT22;13057;50.978;11.034;2022-09-09T02:55:48;17.30;99.90
25058;DHT22;13057;50.978;11.034;2022-09-09T02:58:17;17.30;99.90
25058;DHT22;13057;50.978;11.034;2022-09-09T03:00:46;17.30;99.90
25058;DHT22;13057;50.978;11.034;2022-09-09T03:03:12;17.30;99.90
25058;DHT22;13057;50.978;11.034;2022-09-09T03:05:38;17.30;99.90
25058;DHT22;13057;50.978;11.034;2022-09-09T03:08:05;17.30;99.90
25058;DHT22;13057;50.978;11.034;2022-09-09T03:10:32;17.30;99.90
25058;DHT22;13057;50.978;11.034;2022-09-09T03:12:58;17.40;99.90
25058;DHT22;13057;50.978;11.034;2022-09-09T03:15:24;17.40;99.90
25058;DHT22;13057;50.978;11.034;2022-09-09T03:17:54;17.40;99.90
25058;DHT22;13057;50.978;11.034;2022-09-09T03:20:20;17.40;99.90
25058;DHT22;13057;50.978;11.034;2022-09-09T03:22:46;17.40;99.90
25058;DHT22;13057;50.978;11.034;2022-09-09T03:25:15;17.40;99.90
25058;DHT22;13057;50.978;11.034;2022-09-09T03:27:42;17.40;99.90
25058;DHT22;13057;50.978;11.034;2022-09-09T03:30:09;17.40;99.90
25058;DHT22;13057;50.978;11.034;2022-09-09T03:32:35;17.30;99.90
25058;DHT22;13057;50.978;11.034;2022-09-09T03:35:01;17.30;99.90
25058;DHT22;13057;50.978;11.034;2022-09-09T03:37:27;17.30;99.90
25058;DHT22;13057;50.978;11.034;2022-09-09T03:39:52;17.30;99.90
25058;DHT22;13057;50.978;11.034;2022-09-09T03:42:19;17.30;99.90
25058;DHT22;13057;50.978;11.034;2022-09-09T03:44:46;17.30;99.90
25058;DHT22;13057;50.978;11.034;2022-09-09T03:47:17;17.30;99.90
25058;DHT22;13057;50.978;11.034;2022-09-09T03:49:43;17.30;99.90
25058;DHT22;13057;50.978;11.034;2022-09-09T03:52:09;17.30;99.90
25058;DHT22;13057;50.978;11.034;2022-09-09T03:54:35;17.30;99.90
25058;DHT22;13057;50.978;11.034;2022-09-09T03:57:02;17.30;99.90
25058;DHT22;13057;50.978;11.034;2022-09-09T03:59:28;17.40;99.90
25058;DHT22;13057;50.978;11.034;2022-09-09T04:01:54;17.30;99.90
25058;DHT22;13057;50.978;11.034;2022-09-09T04:04:20;17.30;99.90
25058;DHT22;13057;50.978;11.034;2022-09-09T04:06:46;17.30;99.90
25058;DHT22;13057;50.978;11.034;2022-09-09T04:09:14;17.30;99.90
25058;DHT22;13057;50.978;11.034;2022-09-09T04:11:40;17.30;99.90
25058;DHT22;13057;50.978;11.034;2022-09-09T04:14:06;17.30;99.90
25058;DHT22;13057;50.978;11.034;2022-09-09T04:16:33;17.30;99.90
25058;DHT22;13057;50.978;11.034;2022-09-09T04:18:59;17.30;99.90
25058;DHT22;13057;50.978;11.034;2022-09-09T04:21:25;17.30;99.90
25058;DHT22;13057;50.978;11.034;2022-09-09T04:23:52;17.30;99.90
25058;DHT22;13057;50.978;11.034;2022-09-09T04:26:18;17.20;99.90
25058;DHT22;13057;50.978;11.034;2022-09-09T04:28:45;17.20;99.90
25058;DHT22;13057;50.978;11.034;2022-09-09T04:31:16;17.20;99.90
25058;DHT22;13057;50.978;11.034;2022-09-09T04:33:44;17.20;99.90
25058;DHT22;13057;50.978;11.034;2022-09-09T04:36:10;17.20;99.90
25058;DHT22;13057;50.978;11.034;2022-09-09T04:38:36;17.10;99.90
25058;DHT22;13057;50.978;11.034;2022-09-09T04:41:01;17.10;99.90
25058;DHT22;13057;50.978;11.034;2022-09-09T04:43:28;17.10;99.90
25058;DHT22;13057;50.978;11.034;2022-09-09T04:45:53;17.10;99.90
25058;DHT22;13057;50.978;11.034;2022-09-09T04:48:20;17.10;99.90
25058;DHT22;13057;50.978;11.034;2022-09-09T04:53:20;17.10;99.90
25058;DHT22;13057;50.978;11.034;2022-09-09T04:55:47;17.10;99.90
25058;DHT22;13057;50.978;11.034;2022-09-09T04:58:14;17.10;99.90
25058;DHT22;13057;50.978;11.034;2022-09-09T05:00:40;17.00;99.90
25058;DHT22;13057;50.978;11.034;2022-09-09T05:03:06;17.00;99.90
25058;DHT22;13057;50.978;11.034;2022-09-09T05:05:34;17.00;99.90
25058;DHT22;13057;50.978;11.034;2022-09-09T05:08:03;17.00;99.90
25058;DHT22;13057;50.978;11.034;2022-09-09T05:10:31;17.00;99.90
25058;DHT22;13057;50.978;11.034;2022-09-09T05:12:57;17.00;99.90
25058;DHT22;13057;50.978;11.034;2022-09-09T05:15:22;17.00;99.90
25058;DHT22;13057;50.978;11.034;2022-09-09T05:17:48;17.00;99.90
25058;DHT22;13057;50.978;11.034;2022-09-09T05:20:14;17.00;99.90
25058;DHT22;13057;50.978;11.034;2022-09-09T05:22:40;17.00;99.90
25058;DHT22;13057;50.978;11.034;2022-09-09T05:25:06;17.10;99.90
25058;DHT22;13057;50.978;11.034;2022-09-09T05:27:34;17.10;99.90
25058;DHT22;13057;50.978;11.034;2022-09-09T05:30:00;17.10;99.90
25058;DHT22;13057;50.978;11.034;2022-09-09T05:32:26;17.10;99.90
25058;DHT22;13057;50.978;11.034;2022-09-09T05:34:52;17.10;99.90
25058;DHT22;13057;50.978;11.034;2022-09-09T05:37:18;17.10;99.90
25058;DHT22;13057;50.978;11.034;2022-09-09T05:39:44;17.10;99.90
25058;DHT22;13057;50.978;11.034;2022-09-09T05:42:10;17.10;99.90
25058;DHT22;13057;50.978;11.034;2022-09-09T05:44:35;17.20;99.90
25058;DHT22;13057;50.978;11.034;2022-09-09T05:47:03;17.20;99.90
25058;DHT22;13057;50.978;11.034;2022-09-09T05:49:29;17.20;99.90
25058;DHT22;13057;50.978;11.034;2022-09-09T05:51:54;17.30;99.90
25058;DHT22;13057;50.978;11.034;2022-09-09T05:54:20;17.30;99.90
25058;DHT22;13057;50.978;11.034;2022-09-09T05:56:46;17.30;99.90
25058;DHT22;13057;50.978;11.034;2022-09-09T05:59:14;17.30;99.90
25058;DHT22;13057;50.978;11.034;2022-09-09T06:01:40;17.30;99.90
25058;DHT22;13057;50.978;11.034;2022-09-09T06:04:06;17.40;99.90
25058;DHT22;13057;50.978;11.034;2022-09-09T06:06:35;17.40;99.90
25058;DHT22;13057;50.978;11.034;2022-09-09T06:09:03;17.40;99.90
25058;DHT22;13057;50.978;11.034;2022-09-09T06:11:33;17.40;99.90
25058;DHT22;13057;50.978;11.034;2022-09-09T06:14:02;17.50;99.90
25058;DHT22;13057;50.978;11.034;2022-09-09T06:16:29;17.50;99.90
25058;DHT22;13057;50.978;11.034;2022-09-09T06:18:56;17.50;99.90
25058;DHT22;13057;50.978;11.034;2022-09-09T06:21:24;17.60;99.90
25058;DHT22;13057;50.978;11.034;2022-09-09T06:23:51;17.60;99.90
25058;DHT22;13057;50.978;11.034;2022-09-09T06:26:21;17.60;99.90
25058;DHT22;13057;50.978;11.034;2022-09-09T06:28:49;17.70;99.90
25058;DHT22;13057;50.978;11.034;2022-09-09T06:31:18;17.70;99.90
25058;DHT22;13057;50.978;11.034;2022-09-09T06:33:48;17.80;99.90
25058;DHT22;13057;50.978;11.034;2022-09-09T06:36:17;17.80;99.90
25058;DHT22;13057;50.978;11.034;2022-09-09T06:38:44;17.90;99.90
25058;DHT22;13057;50.978;11.034;2022-09-09T06:41:11;18.00;99.90
25058;DHT22;13057;50.978;11.034;2022-09-09T06:43:38;18.00;99.90
25058;DHT22;13057;50.978;11.034;2022-09-09T06:46:11;18.10;99.90
25058;DHT22;13057;50.978;11.034;2022-09-09T06:48:39;18.10;99.90
25058;DHT22;13057;50.978;11.034;2022-09-09T06:51:11;18.20;99.90
25058;DHT22;13057;50.978;11.034;2022-09-09T06:53:39;18.30;99.90
25058;DHT22;13057;50.978;11.034;2022-09-09T06:56:26;18.30;99.90
25058;DHT22;13057;50.978;11.034;2022-09-09T06:58:54;18.30;99.90
25058;DHT22;13057;50.978;11.034;2022-09-09T07:01:25;18.30;99.90
25058;DHT22;13057;50.978;11.034;2022-09-09T07:03:53;18.40;99.90
25058;DHT22;13057;50.978;11.034;2022-09-09T07:06:23;18.60;99.90
25058;DHT22;13057;50.978;11.034;2022-09-09T07:08:52;18.60;99.90
25058;DHT22;13057;50.978;11.034;2022-09-09T07:11:19;18.70;99.90
25058;DHT22;13057;50.978;11.034;2022-09-09T07:13:46;18.80;99.90
25058;DHT22;13057;50.978;11.034;2022-09-09T07:16:15;18.90;99.90
25058;DHT22;13057;50.978;11.034;2022-09-09T07:18:41;18.90;99.90
25058;DHT22;13057;50.978;11.034;2022-09-09T07:21:09;18.90;99.90
25058;DHT22;13057;50.978;11.034;2022-09-09T07:23:35;19.00;99.90
25058;DHT22;13057;50.978;11.034;2022-09-09T07:26:02;19.00;99.90
25058;DHT22;13057;50.978;11.034;2022-09-09T07:28:28;19.10;99.90
25058;DHT22;13057;50.978;11.034;2022-09-09T07:30:59;19.10;99.60
25058;DHT22;13057;50.978;11.034;2022-09-09T07:33:29;19.20;99.30
25058;DHT22;13057;50.978;11.034;2022-09-09T07:36:04;19.10;99.40
25058;DHT22;13057;50.978;11.034;2022-09-09T07:38:31;19.10;99.60
25058;DHT22;13057;50.978;11.034;2022-09-09T07:41:06;19.10;99.40
25058;DHT22;13057;50.978;11.034;2022-09-09T07:43:34;19.10;99.30
25058;DHT22;13057;50.978;11.034;2022-09-09T07:46:00;19.10;99.10
25058;DHT22;13057;50.978;11.034;2022-09-09T07:48:28;19.20;99.20
25058;DHT22;13057;50.978;11.034;2022-09-09T07:51:05;19.20;99.10
25058;DHT22;13057;50.978;11.034;2022-09-09T07:53:31;19.20;99.20
25058;DHT22;13057;50.978;11.034;2022-09-09T07:56:03;19.30;99.20
25058;DHT22;13057;50.978;11.034;2022-09-09T07:58:29;19.40;98.80
25058;DHT22;13057;50.978;11.034;2022-09-09T08:00:55;19.30;98.90
25058;DHT22;13057;50.978;11.034;2022-09-09T08:03:23;19.30;98.90
25058;DHT22;13057;50.978;11.034;2022-09-09T08:05:49;19.30;98.90
25058;DHT22;13057;50.978;11.034;2022-09-09T08:08:15;19.30;98.90
25058;DHT22;13057;50.978;11.034;2022-09-09T08:10:42;19.40;99.00
25058;DHT22;13057;50.978;11.034;2022-09-09T08:13:09;19.40;99.10
25058;DHT22;13057;50.978;11.034;2022-09-09T08:15:34;19.40;99.20
25058;DHT22;13057;50.978;11.034;2022-09-09T08:18:00;19.40;99.20
25058;DHT22;13057;50.978;11.034;2022-09-09T08:20:26;19.50;99.60
25058;DHT22;13057;50.978;11.034;2022-09-09T08:22:52;19.50;98.90
25058;DHT22;13057;50.978;11.034;2022-09-09T08:25:18;19.60;99.00
25058;DHT22;13057;50.978;11.034;2022-09-09T08:27:44;19.60;98.90
25058;DHT22;13057;50.978;11.034;2022-09-09T08:30:11;19.70;98.90
25058;DHT22;13057;50.978;11.034;2022-09-09T08:32:37;19.70;98.70
25058;DHT22;13057;50.978;11.034;2022-09-09T08:35:12;19.70;98.80
25058;DHT22;13057;50.978;11.034;2022-09-09T08:37:40;19.80;98.60
25058;DHT22;13057;50.978;11.034;2022-09-09T08:40:11;19.90;98.40
25058;DHT22;13057;50.978;11.034;2022-09-09T08:42:50;19.90;98.10
25058;DHT22;13057;50.978;11.034;2022-09-09T08:45:31;19.90;98.10
25058;DHT22;13057;50.978;11.034;2022-09-09T08:50:35;20.10;97.70
25058;DHT22;13057;50.978;11.034;2022-09-09T08:53:05;20.20;97.60
25058;DHT22;13057;50.978;11.034;2022-09-09T08:55:44;20.20;97.60
25058;DHT22;13057;50.978;11.034;2022-09-09T08:58:16;20.30;97.40
25058;DHT22;13057;50.978;11.034;2022-09-09T09:00:57;20.40;97.30
25058;DHT22;13057;50.978;11.034;2022-09-09T09:03:35;20.40;97.10
25058;DHT22;13057;50.978;11.034;2022-09-09T09:06:23;20.50;97.10
25058;DHT22;13057;50.978;11.034;2022-09-09T09:09:08;20.50;97.00
25058;DHT22;13057;50.978;11.034;2022-09-09T09:11:48;20.60;97.20
25058;DHT22;13057;50.978;11.034;2022-09-09T09:14:22;20.70;97.10
25058;DHT22;13057;50.978;11.034;2022-09-09T09:16:58;20.90;97.00
25058;DHT22;13057;50.978;11.034;2022-09-09T09:19:25;20.90;96.80
25058;DHT22;13057;50.978;11.034;2022-09-09T09:22:04;21.00;96.80
25058;DHT22;13057;50.978;11.034;2022-09-09T09:24:51;21.10;96.70
25058;DHT22;13057;50.978;11.034;2022-09-09T09:27:31;21.20;96.70
25058;DHT22;13057;50.978;11.034;2022-09-09T09:30:00;21.30;96.30
25058;DHT22;13057;50.978;11.034;2022-09-09T09:32:30;21.30;95.50
25058;DHT22;13057;50.978;11.034;2022-09-09T09:34:58;21.40;95.40
25058;DHT22;13057;50.978;11.034;2022-09-09T09:37:31;21.40;95.30
25058;DHT22;13057;50.978;11.034;2022-09-09T09:40:14;21.50;95.10
25058;DHT22;13057;50.978;11.034;2022-09-09T09:42:51;21.60;95.20
25058;DHT22;13057;50.978;11.034;2022-09-09T09:45:35;21.60;95.00
25058;DHT22;13057;50.978;11.034;2022-09-09T09:48:11;21.80;94.90
25058;DHT22;13057;50.978;11.034;2022-09-09T09:50:48;21.90;94.50
25058;DHT22;13057;50.978;11.034;2022-09-09T09:53:24;22.00;94.90
25058;DHT22;13057;50.978;11.034;2022-09-09T09:55:56;22.10;94.60
25058;DHT22;13057;50.978;11.034;2022-09-09T09:58:23;22.10;94.20
25058;DHT22;13057;50.978;11.034;2022-09-09T10:00:51;22.00;93.70
25058;DHT22;13057;50.978;11.034;2022-09-09T10:03:27;22.00;93.80
25058;DHT22;13057;50.978;11.034;2022-09-09T10:05:53;21.90;93.90
25058;DHT22;13057;50.978;11.034;2022-09-09T10:08:20;21.90;94.10
25058;DHT22;13057;50.978;11.034;2022-09-09T10:11:14;21.90;94.40
25058;DHT22;13057;50.978;11.034;2022-09-09T10:14:03;22.00;94.20
25058;DHT22;13057;50.978;11.034;2022-09-09T10:16:47;22.10;93.80
25058;DHT22;13057;50.978;11.034;2022-09-09T10:19:30;22.10;93.90
25058;DHT22;13057;50.978;11.034;2022-09-09T10:25:12;22.30;93.40
25058;DHT22;13057;50.978;11.034;2022-09-09T10:30:24;22.40;93.30
25058;DHT22;13057;50.978;11.034;2022-09-09T10:33:08;22.50;93.30
25058;DHT22;13057;50.978;11.034;2022-09-09T10:35:53;22.50;92.90
25058;DHT22;13057;50.978;11.034;2022-09-09T10:38:39;22.60;92.80
25058;DHT22;13057;50.978;11.034;2022-09-09T10:41:15;22.70;92.60
25058;DHT22;13057;50.978;11.034;2022-09-09T10:44:02;22.70;92.30
25058;DHT22;13057;50.978;11.034;2022-09-09T10:46:48;22.70;92.20
25058;DHT22;13057;50.978;11.034;2022-09-09T10:49:29;22.70;92.30
25058;DHT22;13057;50.978;11.034;2022-09-09T10:52:24;22.80;92.40
25058;DHT22;13057;50.978;11.034;2022-09-09T10:55:09;22.80;92.30
25058;DHT22;13057;50.978;11.034;2022-09-09T10:57:40;22.90;91.90
25058;DHT22;13057;50.978;11.034;2022-09-09T11:00:20;22.80;91.60
25058;DHT22;13057;50.978;11.034;2022-09-09T11:02:52;22.80;92.10
25058;DHT22;13057;50.978;11.034;2022-09-09T11:05:25;22.80;92.20
25058;DHT22;13057;50.978;11.034;2022-09-09T11:07:59;22.80;91.70
25058;DHT22;13057;50.978;11.034;2022-09-09T11:10:43;22.90;92.00
25058;DHT22;13057;50.978;11.034;2022-09-09T11:13:17;23.00;91.80
25058;DHT22;13057;50.978;11.034;2022-09-09T11:15:49;22.90;91.10
25058;DHT22;13057;50.978;11.034;2022-09-09T11:18:20;22.90;90.90
25058;DHT22;13057;50.978;11.034;2022-09-09T11:20:51;22.90;90.20
25058;DHT22;13057;50.978;11.034;2022-09-09T11:23:27;22.80;90.00
25058;DHT22;13057;50.978;11.034;2022-09-09T11:26:00;22.70;90.00
25058;DHT22;13057;50.978;11.034;2022-09-09T11:29:04;22.60;90.00
25058;DHT22;13057;50.978;11.034;2022-09-09T11:31:46;22.60;90.00
25058;DHT22;13057;50.978;11.034;2022-09-09T11:34:36;22.60;89.80
25058;DHT22;13057;50.978;11.034;2022-09-09T11:37:16;22.60;90.00
25058;DHT22;13057;50.978;11.034;2022-09-09T11:39:59;22.50;90.40
25058;DHT22;13057;50.978;11.034;2022-09-09T11:42:26;22.50;90.10
25058;DHT22;13057;50.978;11.034;2022-09-09T11:44:52;22.50;90.20
25058;DHT22;13057;50.978;11.034;2022-09-09T11:47:24;22.40;90.10
25058;DHT22;13057;50.978;11.034;2022-09-09T11:49:54;22.40;90.00
25058;DHT22;13057;50.978;11.034;2022-09-09T11:52:35;22.40;90.30
25058;DHT22;13057;50.978;11.034;2022-09-09T11:55:09;22.30;90.20
25058;DHT22;13057;50.978;11.034;2022-09-09T11:57:37;22.30;90.20
25058;DHT22;13057;50.978;11.034;2022-09-09T12:00:05;22.30;90.40
25058;DHT22;13057;50.978;11.034;2022-09-09T12:02:31;22.30;91.00
25058;DHT22;13057;50.978;11.034;2022-09-09T12:05:04;22.30;92.90
25058;DHT22;13057;50.978;11.034;2022-09-09T12:07:36;22.30;92.00
25058;DHT22;13057;50.978;11.034;2022-09-09T12:10:22;22.20;92.10
25058;DHT22;13057;50.978;11.034;2022-09-09T12:12:49;22.20;93.70
25058;DHT22;13057;50.978;11.034;2022-09-09T12:17:50;22.20;94.00
25058;DHT22;13057;50.978;11.034;2022-09-09T12:20:23;22.20;93.80
25058;DHT22;13057;50.978;11.034;2022-09-09T12:23:12;22.20;94.00
25058;DHT22;13057;50.978;11.034;2022-09-09T12:25:58;22.30;93.70
25058;DHT22;13057;50.978;11.034;2022-09-09T12:28:41;22.30;93.20
25058;DHT22;13057;50.978;11.034;2022-09-09T12:31:15;22.30;93.10
25058;DHT22;13057;50.978;11.034;2022-09-09T12:33:44;22.20;93.60
25058;DHT22;13057;50.978;11.034;2022-09-09T12:36:16;22.20;93.10
25058;DHT22;13057;50.978;11.034;2022-09-09T12:38:44;22.10;92.60
25058;DHT22;13057;50.978;11.034;2022-09-09T12:41:22;22.10;92.20
25058;DHT22;13057;50.978;11.034;2022-09-09T12:43:49;22.00;91.90
25058;DHT22;13057;50.978;11.034;2022-09-09T12:46:28;22.00;91.60
25058;DHT22;13057;50.978;11.034;2022-09-09T12:48:57;22.10;92.00
25058;DHT22;13057;50.978;11.034;2022-09-09T12:51:28;22.20;91.30
25058;DHT22;13057;50.978;11.034;2022-09-09T12:53:58;22.20;91.70
25058;DHT22;13057;50.978;11.034;2022-09-09T12:56:27;22.20;91.10
25058;DHT22;13057;50.978;11.034;2022-09-09T12:58:56;22.20;89.00
25058;DHT22;13057;50.978;11.034;2022-09-09T13:01:27;22.10;88.30
25058;DHT22;13057;50.978;11.034;2022-09-09T13:03:54;22.10;88.00
25058;DHT22;13057;50.978;11.034;2022-09-09T13:06:27;22.10;89.20
25058;DHT22;13057;50.978;11.034;2022-09-09T13:08:54;22.20;88.10
25058;DHT22;13057;50.978;11.034;2022-09-09T13:11:38;22.20;88.10
25058;DHT22;13057;50.978;11.034;2022-09-09T13:14:05;22.30;87.70
25058;DHT22;13057;50.978;11.034;2022-09-09T13:16:35;22.30;88.00
25058;DHT22;13057;50.978;11.034;2022-09-09T13:19:08;22.30;88.30
25058;DHT22;13057;50.978;11.034;2022-09-09T13:21:37;22.20;87.10
25058;DHT22;13057;50.978;11.034;2022-09-09T13:24:05;22.20;88.00
25058;DHT22;13057;50.978;11.034;2022-09-09T13:26:34;22.20;88.30
25058;DHT22;13057;50.978;11.034;2022-09-09T13:29:16;22.10;87.40
25058;DHT22;13057;50.978;11.034;2022-09-09T13:31:44;22.10;87.40
25058;DHT22;13057;50.978;11.034;2022-09-09T13:34:12;22.00;86.40
25058;DHT22;13057;50.978;11.034;2022-09-09T13:36:39;22.00;85.40
25058;DHT22;13057;50.978;11.034;2022-09-09T13:39:15;21.90;86.00
25058;DHT22;13057;50.978;11.034;2022-09-09T13:41:44;22.00;85.10
25058;DHT22;13057;50.978;11.034;2022-09-09T13:44:20;22.00;85.20
25058;DHT22;13057;50.978;11.034;2022-09-09T13:46:46;22.00;85.20
25058;DHT22;13057;50.978;11.034;2022-09-09T13:49:28;22.00;85.30
25058;DHT22;13057;50.978;11.034;2022-09-09T13:52:06;22.00;84.60
25058;DHT22;13057;50.978;11.034;2022-09-09T13:54:33;22.00;85.00
25058;DHT22;13057;50.978;11.034;2022-09-09T13:56:59;22.00;83.80
25058;DHT22;13057;50.978;11.034;2022-09-09T13:59:27;22.00;84.60
25058;DHT22;13057;50.978;11.034;2022-09-09T14:01:52;22.00;81.60
25058;DHT22;13057;50.978;11.034;2022-09-09T14:04:19;21.90;82.00
25058;DHT22;13057;50.978;11.034;2022-09-09T14:06:46;21.90;82.40
25058;DHT22;13057;50.978;11.034;2022-09-09T14:09:16;21.90;82.50
25058;DHT22;13057;50.978;11.034;2022-09-09T14:11:43;21.80;82.20
25058;DHT22;13057;50.978;11.034;2022-09-09T14:14:09;21.80;81.10
25058;DHT22;13057;50.978;11.034;2022-09-09T14:16:35;21.80;80.90
25058;DHT22;13057;50.978;11.034;2022-09-09T14:19:02;21.90;81.30
25058;DHT22;13057;50.978;11.034;2022-09-09T14:21:27;21.90;81.50
25058;DHT22;13057;50.978;11.034;2022-09-09T14:23:54;21.90;82.60
25058;DHT22;13057;50.978;11.034;2022-09-09T14:26:21;22.00;82.20
25058;DHT22;13057;50.978;11.034;2022-09-09T14:28:47;22.00;82.90
25058;DHT22;13057;50.978;11.034;2022-09-09T14:31:16;22.00;81.60
25058;DHT22;13057;50.978;11.034;2022-09-09T14:33:44;22.10;82.70
25058;DHT22;13057;50.978;11.034;2022-09-09T14:36:10;22.10;82.60
25058;DHT22;13057;50.978;11.034;2022-09-09T14:38:37;22.20;82.70
25058;DHT22;13057;50.978;11.034;2022-09-09T14:41:10;22.10;82.80
25058;DHT22;13057;50.978;11.034;2022-09-09T14:43:38;22.20;82.50
25058;DHT22;13057;50.978;11.034;2022-09-09T14:46:06;22.20;82.70
25058;DHT22;13057;50.978;11.034;2022-09-09T14:48:32;22.20;82.70
25058;DHT22;13057;50.978;11.034;2022-09-09T14:51:06;22.20;81.90
25058;DHT22;13057;50.978;11.034;2022-09-09T14:53:32;22.10;82.40
25058;DHT22;13057;50.978;11.034;2022-09-09T14:56:06;22.10;82.60
25058;DHT22;13057;50.978;11.034;2022-09-09T14:58:32;22.10;82.30
25058;DHT22;13057;50.978;11.034;2022-09-09T15:01:04;22.10;82.90
25058;DHT22;13057;50.978;11.034;2022-09-09T15:03:30;22.00;82.20
25058;DHT22;13057;50.978;11.034;2022-09-09T15:05:56;22.00;82.60
25058;DHT22;13057;50.978;11.034;2022-09-09T15:08:24;22.00;83.00
25058;DHT22;13057;50.978;11.034;2022-09-09T15:10:59;22.00;83.70
25058;DHT22;13057;50.978;11.034;2022-09-09T15:13:25;22.00;84.10
25058;DHT22;13057;50.978;11.034;2022-09-09T15:15:51;22.00;83.90
25058;DHT22;13057;50.978;11.034;2022-09-09T15:18:17;22.00;84.20
25058;DHT22;13057;50.978;11.034;2022-09-09T15:20:46;21.90;84.20
25058;DHT22;13057;50.978;11.034;2022-09-09T15:23:13;22.00;85.60
25058;DHT22;13057;50.978;11.034;2022-09-09T15:25:53;22.00;86.10
25058;DHT22;13057;50.978;11.034;2022-09-09T15:28:20;22.00;85.80
25058;DHT22;13057;50.978;11.034;2022-09-09T15:30:48;22.00;85.70
25058;DHT22;13057;50.978;11.034;2022-09-09T15:33:14;22.10;85.30
25058;DHT22;13057;50.978;11.034;2022-09-09T15:35:40;22.10;84.70
25058;DHT22;13057;50.978;11.034;2022-09-09T15:38:06;22.10;85.10
25058;DHT22;13057;50.978;11.034;2022-09-09T15:40:35;22.10;84.80
25058;DHT22;13057;50.978;11.034;2022-09-09T15:43:01;22.10;84.40
25058;DHT22;13057;50.978;11.034;2022-09-09T15:45:28;22.10;84.60
25058;DHT22;13057;50.978;11.034;2022-09-09T15:47:56;22.00;84.10
25058;DHT22;13057;50.978;11.034;2022-09-09T15:50:22;21.90;85.00
25058;DHT22;13057;50.978;11.034;2022-09-09T15:52:48;21.90;84.60